createdAt,value
2018-12-15T00:00:08.742Z,370.34
2018-12-15T00:01:08.717Z,369.24
2018-12-15T00:02:08.854Z,369.44
2018-12-15T00:03:08.746Z,369.88
2018-12-15T00:04:08.726Z,369.27
2018-12-15T00:05:08.724Z,369.7
2018-12-15T00:06:08.746Z,369.02
2018-12-15T00:07:08.745Z,369.25
2018-12-15T00:08:08.743Z,369.32
2018-12-15T00:09:08.756Z,368.85
2018-12-15T00:10:08.744Z,369.65
2018-12-15T00:11:08.765Z,370.15
2018-12-15T00:12:08.771Z,369.94
2018-12-15T00:13:08.735Z,370.78
2018-12-15T00:14:08.754Z,369.76
2018-12-15T00:15:08.758Z,369.94
2018-12-15T00:16:08.759Z,369.29
2018-12-15T00:17:08.729Z,369.73
2018-12-15T00:18:08.742Z,369.51
2018-12-15T00:19:08.746Z,370.16
2018-12-15T00:20:08.781Z,370.15
2018-12-15T00:21:09.095Z,370.09
2018-12-15T00:22:08.763Z,370.22
2018-12-15T00:23:08.772Z,370.8
2018-12-15T00:24:08.765Z,370.54
2018-12-15T00:25:08.784Z,369.98
2018-12-15T00:26:09.390Z,369.97
2018-12-15T00:27:08.769Z,368.94
2018-12-15T00:28:08.753Z,368.81
2018-12-15T00:29:08.811Z,367.9
2018-12-15T00:30:08.764Z,367.22
2018-12-15T00:31:08.775Z,368.18
2018-12-15T00:32:09.372Z,367.3
2018-12-15T00:33:08.787Z,367.54
2018-12-15T00:34:08.783Z,366.99
2018-12-15T00:35:08.789Z,366.64
2018-12-15T00:36:08.766Z,367.69
2018-12-15T00:37:08.782Z,366.96
2018-12-15T00:38:08.770Z,367.28
2018-12-15T00:39:08.781Z,367.31
2018-12-15T00:40:08.777Z,367.54
2018-12-15T00:41:08.797Z,368.87
2018-12-15T00:42:08.801Z,368.37
2018-12-15T00:43:08.784Z,369.47
2018-12-15T00:44:08.808Z,369.89
2018-12-15T00:45:12.941Z,370.4
2018-12-15T00:46:08.790Z,369.44
2018-12-15T00:47:13.645Z,369.64
2018-12-15T00:52:25.595Z,370.69
2018-12-15T00:52:38.513Z,369.77
2018-12-15T00:53:38.513Z,369.5
2018-12-15T00:54:38.509Z,369.08
2018-12-15T00:55:38.547Z,370
2018-12-15T00:56:38.509Z,370.38
2018-12-15T00:57:38.505Z,371.06
2018-12-15T00:58:38.514Z,371.26
2018-12-15T00:59:38.532Z,372.78
2018-12-15T01:00:38.554Z,372.62
2018-12-15T01:01:38.522Z,374.06
2018-12-15T01:02:38.526Z,373.62
2018-12-15T01:03:38.516Z,373.87
2018-12-15T01:04:38.538Z,374.1
2018-12-15T01:05:38.549Z,374.78
2018-12-15T01:06:38.530Z,375.04
2018-12-15T01:07:38.527Z,374.91
2018-12-15T01:12:08.605Z,374.1
2018-12-15T01:13:08.597Z,373.26
2018-12-15T01:14:08.598Z,373.91
2018-12-15T01:15:08.580Z,372.65
2018-12-15T01:16:09.108Z,373.02
2018-12-15T01:17:08.644Z,373.26
2018-12-15T01:18:08.596Z,374.45
2018-12-15T01:19:08.574Z,373.31
2018-12-15T01:20:15.161Z,374.25
2018-12-15T01:21:08.613Z,374.7
2018-12-15T01:22:08.611Z,374.96
2018-12-15T01:23:08.634Z,374.86
2018-12-15T01:24:08.615Z,375.6
2018-12-15T01:25:08.595Z,374.68
2018-12-15T01:26:08.594Z,374.67
2018-12-15T01:27:08.630Z,375.12
2018-12-15T01:28:08.629Z,373.53
2018-12-15T01:29:08.594Z,373.84
2018-12-15T01:30:08.610Z,372.26
2018-12-15T01:31:08.616Z,373.13
2018-12-15T01:32:09.024Z,372.71
2018-12-15T01:34:08.614Z,372.07
2018-12-15T01:35:14.558Z,372.08
2018-12-15T01:36:08.640Z,372.13
2018-12-15T01:37:08.652Z,372.19
2018-12-15T01:38:08.611Z,372.2
2018-12-15T01:39:08.602Z,371.57
2018-12-15T01:40:08.653Z,371.61
2018-12-15T01:41:08.621Z,371.38
2018-12-15T01:42:08.761Z,371.19
2018-12-15T01:43:08.637Z,371.51
2018-12-15T01:44:08.634Z,370.28
2018-12-15T01:45:08.654Z,370.28
2018-12-15T01:46:08.647Z,370.13
2018-12-15T01:47:08.620Z,370.56
2018-12-15T01:49:08.634Z,370.63
2018-12-15T01:50:37.526Z,369.74
2018-12-15T01:51:08.649Z,369.51
2018-12-15T01:52:12.005Z,369.56
2018-12-15T01:53:09.944Z,369
2018-12-15T01:54:20.104Z,368.56
2018-12-15T01:55:18.851Z,367.94
2018-12-15T01:56:12.674Z,367.18
2018-12-15T01:57:14.219Z,366.17
2018-12-15T01:58:08.680Z,365.53
2018-12-15T01:59:08.692Z,365.74
2018-12-15T02:00:08.670Z,365.59
2018-12-15T02:01:08.677Z,365.69
2018-12-15T02:02:08.659Z,365.23
2018-12-15T02:03:09.003Z,364.81
2018-12-15T02:04:08.688Z,365.35
2018-12-15T02:05:12.181Z,365.74
2018-12-15T02:06:08.687Z,365.95
2018-12-15T02:07:08.658Z,365.7
2018-12-15T02:08:08.664Z,366.15
2018-12-15T02:09:08.661Z,365.7
2018-12-15T02:10:08.684Z,366.84
2018-12-15T02:11:08.688Z,367.2
2018-12-15T02:12:08.679Z,368.14
2018-12-15T02:13:08.670Z,367.34
2018-12-15T02:14:08.680Z,366.4
2018-12-15T02:16:08.984Z,366.52
2018-12-15T02:17:08.721Z,366.55
2018-12-15T02:18:08.669Z,366.28
2018-12-15T02:19:08.690Z,366.45
2018-12-15T02:20:08.698Z,366.71
2018-12-15T02:21:08.679Z,366.68
2018-12-15T02:22:08.680Z,366.27
2018-12-15T02:23:08.698Z,365.65
2018-12-15T02:24:08.700Z,366.52
2018-12-15T02:28:39.170Z,363.03
2018-12-15T02:29:39.198Z,362.46
2018-12-15T02:30:39.163Z,361.54
2018-12-15T02:31:56.885Z,360.24
2018-12-15T02:32:56.849Z,359.61
2018-12-15T02:33:56.883Z,358.86
2018-12-15T02:34:56.845Z,357.61
2018-12-15T02:35:56.882Z,357.39
2018-12-15T02:36:56.874Z,358.74
2018-12-15T02:37:56.845Z,357.82
2018-12-15T02:38:56.851Z,358.28
2018-12-15T02:39:56.902Z,358.32
2018-12-15T02:40:56.862Z,358.04
2018-12-15T02:41:56.862Z,358.27
2018-12-15T02:42:56.846Z,358.13
2018-12-15T02:43:56.876Z,358.83
2018-12-15T02:44:56.890Z,358.08
2018-12-15T02:45:57.086Z,358.32
2018-12-15T02:46:56.875Z,358.57
2018-12-15T02:47:56.913Z,359.47
2018-12-15T02:48:56.910Z,361.27
2018-12-15T02:49:56.885Z,362.09
2018-12-15T02:50:56.891Z,362.37
2018-12-15T02:51:56.871Z,361.68
2018-12-15T02:52:56.872Z,363.27
2018-12-15T02:53:56.883Z,363.22
2018-12-15T02:54:56.916Z,364.11
2018-12-15T02:57:16.008Z,365.08
2018-12-15T02:58:15.989Z,365.15
2018-12-15T02:59:16.475Z,366.41
2018-12-15T03:00:15.934Z,366.03
2018-12-15T03:01:15.950Z,366.43
2018-12-15T03:02:15.984Z,367.35
2018-12-15T03:03:15.966Z,367.56
2018-12-15T03:04:15.981Z,367.96
2018-12-15T03:05:16.001Z,368.66
2018-12-15T03:06:15.967Z,369.48
2018-12-15T03:07:15.971Z,369.92
2018-12-15T03:08:15.977Z,369.5
2018-12-15T03:09:15.942Z,369.12
2018-12-15T03:10:15.991Z,369.34
2018-12-15T03:11:16.007Z,369.4
2018-12-15T03:12:15.954Z,369.34
2018-12-15T03:13:15.980Z,369.34
2018-12-15T03:14:15.967Z,368.66
2018-12-15T03:15:15.993Z,368.47
2018-12-15T03:16:15.980Z,368.98
2018-12-15T03:17:15.975Z,368.48
2018-12-15T03:18:15.988Z,369.34
2018-12-15T03:19:16.020Z,369.14
2018-12-15T03:20:15.986Z,369.44
2018-12-15T03:21:15.991Z,368.97
2018-12-15T03:22:16.009Z,368.92
2018-12-15T03:23:15.989Z,368.53
2018-12-15T03:24:15.983Z,369.16
2018-12-15T03:25:16.010Z,368.45
2018-12-15T03:26:15.994Z,369.2
2018-12-15T03:27:17.435Z,369.57
2018-12-15T03:28:15.985Z,370.32
2018-12-15T03:29:16.014Z,369.67
2018-12-15T03:30:15.997Z,368.53
2018-12-15T03:31:16.061Z,368.15
2018-12-15T03:32:16.004Z,368.52
2018-12-15T03:33:16.015Z,368.68
2018-12-15T03:34:16.017Z,369.54
2018-12-15T03:35:16.005Z,369.12
2018-12-15T03:36:16.028Z,368.91
2018-12-15T03:37:32.584Z,368.36
2018-12-15T03:38:32.565Z,367.39
2018-12-15T03:39:32.596Z,367.01
2018-12-15T03:40:32.566Z,366.33
2018-12-15T03:41:32.572Z,366.2
2018-12-15T03:42:32.544Z,364.88
2018-12-15T03:43:32.563Z,363.57
2018-12-15T03:44:32.589Z,362.72
2018-12-15T03:45:32.576Z,361.23
2018-12-15T03:46:32.558Z,360.38
2018-12-15T03:47:32.626Z,358.84
2018-12-15T03:48:32.566Z,359.35
2018-12-15T03:49:32.694Z,358.83
2018-12-15T03:50:32.596Z,357.37
2018-12-15T03:51:32.564Z,357.37
2018-12-15T03:52:32.580Z,357.42
2018-12-15T03:53:32.597Z,356.48
2018-12-15T03:54:32.598Z,354.97
2018-12-15T03:55:32.559Z,353.65
2018-12-15T03:56:32.585Z,353.81
2018-12-15T03:57:32.621Z,353.63
2018-12-15T03:58:32.620Z,352.71
2018-12-15T03:59:32.596Z,352.78
2018-12-15T04:00:32.580Z,352.55
2018-12-15T04:01:32.580Z,352.73
2018-12-15T04:02:32.899Z,354.24
2018-12-15T04:03:32.611Z,355.58
2018-12-15T04:04:32.608Z,355.48
2018-12-15T04:05:32.584Z,356.19
2018-12-15T04:06:32.580Z,356.83
2018-12-15T04:07:32.607Z,356.79
2018-12-15T04:08:32.608Z,357.94
2018-12-15T04:09:32.595Z,358.34
2018-12-15T04:10:32.619Z,358.18
2018-12-15T04:11:32.616Z,357.97
2018-12-15T04:12:32.611Z,359.02
2018-12-15T04:13:32.607Z,359.41
2018-12-15T04:14:32.627Z,359.45
2018-12-15T04:15:32.622Z,359.9
2018-12-15T04:16:32.610Z,361.94
2018-12-15T04:17:32.635Z,361.87
2018-12-15T04:18:32.656Z,362.57
2018-12-15T04:19:32.903Z,362.3
2018-12-15T04:20:32.604Z,363.46
2018-12-15T04:21:32.629Z,363.05
2018-12-15T04:22:32.621Z,363.68
2018-12-15T04:23:32.655Z,365.2
2018-12-15T04:24:32.639Z,365.44
2018-12-15T04:25:32.627Z,366.08
2018-12-15T04:26:32.679Z,366.09
2018-12-15T04:27:32.796Z,366.77
2018-12-15T04:28:32.637Z,367.7
2018-12-15T04:29:32.624Z,367.91
2018-12-15T04:30:32.646Z,368.16
2018-12-15T04:31:32.667Z,368.42
2018-12-15T04:32:32.647Z,368.38
2018-12-15T04:33:32.650Z,367.52
2018-12-15T04:34:32.658Z,367.1
2018-12-15T04:35:32.634Z,367.38
2018-12-15T04:36:32.642Z,367.77
2018-12-15T04:37:32.643Z,367.73
2018-12-15T04:38:32.685Z,367.49
2018-12-15T04:39:32.657Z,367.95
2018-12-15T04:40:32.774Z,368.37
2018-12-15T04:41:32.659Z,368.39
2018-12-15T04:42:32.651Z,367.75
2018-12-15T04:43:32.654Z,367.94
2018-12-15T04:44:32.662Z,368.19
2018-12-15T04:45:32.668Z,367.11
2018-12-15T04:46:32.678Z,367.7
2018-12-15T04:47:32.651Z,367.07
2018-12-15T04:48:32.692Z,366.88
2018-12-15T04:49:32.664Z,366.23
2018-12-15T04:50:32.701Z,365.55
2018-12-15T04:51:32.716Z,364.95
2018-12-15T04:52:32.676Z,365.16
2018-12-15T04:53:32.684Z,364.21
2018-12-15T04:54:32.685Z,365.6
2018-12-15T04:55:32.676Z,365.43
2018-12-15T04:56:32.685Z,364.29
2018-12-15T04:57:32.711Z,364.31
2018-12-15T04:58:32.703Z,363.9
2018-12-15T04:59:32.667Z,364.53
2018-12-15T05:00:32.709Z,364.82
2018-12-15T05:01:32.685Z,363.7
2018-12-15T05:02:50.546Z,363.95
2018-12-15T05:03:50.507Z,362.85
2018-12-15T05:04:50.486Z,363.11
2018-12-15T05:05:50.523Z,362.75
2018-12-15T05:06:50.595Z,362.86
2018-12-15T05:07:50.489Z,363.56
2018-12-15T05:08:50.500Z,362.45
2018-12-15T05:09:50.544Z,363.11
2018-12-15T05:10:50.510Z,362.41
2018-12-15T05:11:50.594Z,362.44
2018-12-15T05:12:50.833Z,362.02
2018-12-15T05:13:50.512Z,362.06
2018-12-15T05:14:50.535Z,361.5
2018-12-15T05:15:50.507Z,362.12
2018-12-15T05:16:50.505Z,361.45
2018-12-15T05:17:50.507Z,361.16
2018-12-15T05:18:50.546Z,361.05
2018-12-15T05:19:50.519Z,361.21
2018-12-15T05:20:50.635Z,361.49
2018-12-15T05:21:50.538Z,360.5
2018-12-15T05:22:50.531Z,360.84
2018-12-15T05:23:50.534Z,360.79
2018-12-15T05:24:50.557Z,360.32
2018-12-15T05:25:50.544Z,359.72
2018-12-15T05:26:50.571Z,359.71
2018-12-15T05:28:07.558Z,359.74
2018-12-15T05:29:07.526Z,358.22
2018-12-15T05:33:36.383Z,357.86
2018-12-15T05:34:36.283Z,358.39
2018-12-15T05:35:36.294Z,358.37
2018-12-15T05:37:55.685Z,359.19
2018-12-15T05:38:55.605Z,360.13
2018-12-15T05:39:55.567Z,360.57
2018-12-15T05:40:55.594Z,360.12
2018-12-15T05:43:14.752Z,358.37
2018-12-15T05:44:14.693Z,358.59
2018-12-15T05:45:14.693Z,358.18
2018-12-15T05:46:14.741Z,357.52
2018-12-15T05:47:14.725Z,357.5
2018-12-15T05:48:14.689Z,358.63
2018-12-15T05:49:14.704Z,358.84
2018-12-15T05:50:14.696Z,358.36
2018-12-15T05:51:14.705Z,359.81
2018-12-15T05:52:14.682Z,359.68
2018-12-15T05:53:14.698Z,359.74
2018-12-15T05:54:14.723Z,359.13
2018-12-15T05:55:14.717Z,359.54
2018-12-15T05:56:14.694Z,358.91
2018-12-15T05:57:14.727Z,359.63
2018-12-15T05:58:14.719Z,359.01
2018-12-15T05:59:14.748Z,359.05
2018-12-15T06:00:14.766Z,358.07
2018-12-15T06:01:14.714Z,357.66
2018-12-15T06:02:14.712Z,357.89
2018-12-15T06:03:14.754Z,357.73
2018-12-15T06:04:14.732Z,357.46
2018-12-15T06:05:14.692Z,357.22
2018-12-15T06:09:44.547Z,357.49
2018-12-15T06:10:44.532Z,357.71
2018-12-15T06:11:48.606Z,357.48
2018-12-15T06:12:44.540Z,357.42
2018-12-15T06:13:44.515Z,357.27
2018-12-15T06:14:44.563Z,357.06
2018-12-15T06:15:44.539Z,356.38
2018-12-15T06:16:44.564Z,356.22
2018-12-15T06:17:44.514Z,356.42
2018-12-15T06:18:44.536Z,356.17
2018-12-15T06:19:44.526Z,355.52
2018-12-15T06:20:44.549Z,355.96
2018-12-15T06:21:44.535Z,355.76
2018-12-15T06:22:44.518Z,356
2018-12-15T06:23:44.585Z,357.13
2018-12-15T06:24:44.556Z,356
2018-12-15T06:29:13.456Z,356.74
2018-12-15T06:30:13.476Z,356.3
2018-12-15T06:31:13.453Z,355.86
2018-12-15T06:32:13.467Z,355.42
2018-12-15T06:33:13.446Z,356.32
2018-12-15T06:34:13.452Z,354.99
2018-12-15T06:35:13.471Z,354.98
2018-12-15T06:36:13.468Z,353.93
2018-12-15T06:37:13.471Z,354.13
2018-12-15T06:38:13.448Z,354.86
2018-12-15T06:39:13.454Z,354.8
2018-12-15T06:40:13.462Z,355.49
2018-12-15T06:41:13.451Z,355.94
2018-12-15T06:42:13.449Z,355.92
2018-12-15T06:43:13.512Z,356.57
2018-12-15T06:44:13.486Z,357.26
2018-12-15T06:45:13.494Z,357.46
2018-12-15T06:46:13.485Z,357.6
2018-12-15T06:47:13.547Z,358.27
2018-12-15T06:48:13.647Z,357.67
2018-12-15T06:49:13.480Z,358.04
2018-12-15T06:50:13.498Z,357.63
2018-12-15T06:51:13.496Z,357.59
2018-12-15T06:52:13.492Z,356.96
2018-12-15T06:53:13.535Z,356.8
2018-12-15T06:54:13.488Z,357.27
2018-12-15T06:55:13.508Z,356.74
2018-12-15T06:56:13.485Z,357.01
2018-12-15T06:57:13.518Z,356.32
2018-12-15T06:58:13.485Z,356.97
2018-12-15T06:59:13.596Z,356.11
2018-12-15T07:00:13.521Z,356.77
2018-12-15T07:01:13.486Z,355.94
2018-12-15T07:02:13.491Z,356.15
2018-12-15T07:03:13.511Z,355.47
2018-12-15T07:04:13.547Z,354.14
2018-12-15T07:05:13.524Z,353.76
2018-12-15T07:09:42.985Z,352.53
2018-12-15T07:10:42.921Z,351.24
2018-12-15T07:11:42.911Z,351.85
2018-12-15T07:12:42.943Z,351.59
2018-12-15T07:13:42.938Z,352.04
2018-12-15T07:14:42.915Z,351.61
2018-12-15T07:16:42.958Z,351.23
2018-12-15T07:17:42.928Z,350.97
2018-12-15T07:18:44.865Z,351.42
2018-12-15T07:19:42.921Z,351.48
2018-12-15T07:20:42.918Z,352.37
2018-12-15T07:21:42.983Z,352.19
2018-12-15T07:22:42.929Z,352.21
2018-12-15T07:23:43.018Z,352.42
2018-12-15T07:24:42.947Z,353.12
2018-12-15T07:25:42.941Z,352.94
2018-12-15T07:26:42.915Z,353.36
2018-12-15T07:27:42.955Z,352.62
2018-12-15T07:28:42.944Z,352.42
2018-12-15T07:29:42.928Z,352.13
2018-12-15T07:30:42.921Z,352.37
2018-12-15T07:31:43.034Z,352.58
2018-12-15T07:32:42.946Z,352.1
2018-12-15T07:33:59.903Z,352.32
2018-12-15T07:35:01.020Z,351.93
2018-12-15T07:35:59.555Z,353.04
2018-12-15T07:36:59.517Z,352.82
2018-12-15T07:37:59.514Z,352.35
2018-12-15T07:38:59.547Z,352.56
2018-12-15T07:40:11.002Z,352.41
2018-12-15T07:41:32.122Z,352.34
2018-12-15T07:42:30.093Z,352.36
2018-12-15T07:43:30.043Z,351.97
2018-12-15T07:44:30.062Z,350.6
2018-12-15T07:45:30.074Z,350.78
2018-12-15T07:46:30.085Z,350.18
2018-12-15T07:47:30.082Z,349.43
2018-12-15T07:48:30.058Z,349.48
2018-12-15T07:49:30.058Z,349.25
2018-12-15T07:50:30.103Z,349.03
2018-12-15T07:51:30.081Z,349.05
2018-12-15T07:52:30.115Z,349.29
2018-12-15T07:53:30.089Z,348.87
2018-12-15T07:54:35.174Z,348.82
2018-12-15T07:55:41.355Z,349.7
2018-12-15T07:56:41.621Z,349.74
2018-12-15T07:57:41.116Z,349.72
2018-12-15T07:58:41.146Z,350.03
2018-12-15T07:59:41.133Z,349.58
2018-12-15T08:00:41.132Z,350.5
2018-12-15T08:01:41.149Z,351.02
2018-12-15T08:02:41.144Z,351.61
2018-12-15T08:03:41.153Z,351.62
2018-12-15T08:04:41.151Z,351.87
2018-12-15T08:05:41.175Z,352.72
2018-12-15T08:06:41.176Z,351.87
2018-12-15T08:07:41.174Z,353.82
2018-12-15T08:08:46.684Z,354.76
2018-12-15T08:10:00.369Z,355.41
2018-12-15T08:11:00.349Z,356.5
2018-12-15T08:12:00.314Z,356.86
2018-12-15T08:13:00.357Z,356.87
2018-12-15T08:14:00.366Z,357.37
2018-12-15T08:15:00.335Z,358.91
2018-12-15T08:16:00.332Z,359.74
2018-12-15T08:17:00.344Z,359.96
2018-12-15T08:18:00.327Z,360.36
2018-12-15T08:19:00.362Z,361.44
2018-12-15T08:20:00.362Z,360.82
2018-12-15T08:21:00.345Z,361.15
2018-12-15T08:22:00.343Z,360.52
2018-12-15T08:23:00.352Z,361.54
2018-12-15T08:24:00.343Z,361.76
2018-12-15T08:25:00.395Z,363.52
2018-12-15T08:26:00.341Z,363.29
2018-12-15T08:27:00.468Z,363.26
2018-12-15T08:28:00.364Z,363.72
2018-12-15T08:29:00.362Z,365.31
2018-12-15T08:30:00.332Z,365.2
2018-12-15T08:31:00.330Z,366.12
2018-12-15T08:32:00.336Z,365.85
2018-12-15T08:33:05.740Z,366.3
2018-12-15T08:34:00.396Z,365.86
2018-12-15T08:35:00.333Z,365.15
2018-12-15T08:36:00.366Z,366.13
2018-12-15T08:38:02.505Z,367.42
2018-12-15T08:40:11.737Z,368.12
2018-12-15T08:41:37.221Z,368.61
2018-12-15T08:42:03.888Z,367.84
2018-12-15T08:43:13.471Z,368.05
2018-12-15T08:44:07.633Z,368.76
2018-12-15T08:45:12.038Z,369.02
2018-12-15T08:46:14.569Z,370.06
2018-12-15T08:47:03.889Z,370.67
2018-12-15T08:48:08.826Z,370.28
2018-12-15T08:49:04.669Z,371.16
2018-12-15T08:50:04.357Z,371.35
2018-12-15T08:51:03.863Z,371.18
2018-12-15T08:52:03.923Z,372.78
2018-12-15T08:54:23.334Z,374.23
2018-12-15T08:55:23.227Z,375.56
2018-12-15T08:56:25.521Z,377.05
2018-12-15T08:57:23.240Z,378.11
2018-12-15T08:59:42.575Z,379.63
2018-12-15T09:00:42.546Z,380.48
2018-12-15T09:01:42.522Z,380.97
2018-12-15T09:02:42.520Z,381.18
2018-12-15T09:03:42.502Z,381.83
2018-12-15T09:04:42.533Z,382.48
2018-12-15T09:05:42.585Z,383.14
2018-12-15T09:06:42.547Z,383.2
2018-12-15T09:07:42.534Z,383.17
2018-12-15T09:08:42.563Z,383.63
2018-12-15T09:09:42.574Z,383.34
2018-12-15T09:10:42.548Z,383.57
2018-12-15T09:11:42.548Z,383.85
2018-12-15T09:12:42.555Z,383.6
2018-12-15T09:13:42.529Z,383.98
2018-12-15T09:14:42.542Z,385.68
2018-12-15T09:15:42.544Z,386
2018-12-15T09:17:33.758Z,385.79
2018-12-15T09:17:53.474Z,385.61
2018-12-15T09:19:30.712Z,386.28
2018-12-15T09:22:37.101Z,386.43
2018-12-15T09:22:57.674Z,387.33
2018-12-15T09:23:57.651Z,386.15
2018-12-15T09:24:57.654Z,387.3
2018-12-15T09:26:57.669Z,389.73
2018-12-15T09:27:57.649Z,390.13
2018-12-15T09:28:57.653Z,391.02
2018-12-15T09:29:57.847Z,392.3
2018-12-15T09:30:57.699Z,393.02
2018-12-15T09:31:57.702Z,393.17
2018-12-15T09:32:57.679Z,393.64
2018-12-15T09:33:57.674Z,394.22
2018-12-15T09:34:57.657Z,394.88
2018-12-15T09:35:57.656Z,395.09
2018-12-15T09:36:57.703Z,394.81
2018-12-15T09:37:57.710Z,395.91
2018-12-15T09:38:57.681Z,396.56
2018-12-15T09:39:57.657Z,396.44
2018-12-15T09:40:57.678Z,397.55
2018-12-15T09:41:57.694Z,397.47
2018-12-15T09:42:57.821Z,398.42
2018-12-15T09:43:59.756Z,397.97
2018-12-15T09:44:57.829Z,398.59
2018-12-15T09:45:57.694Z,398.66
2018-12-15T09:46:57.700Z,398.85
2018-12-15T09:48:01.214Z,397.93
2018-12-15T09:48:57.689Z,397.79
2018-12-15T09:49:58.648Z,396.39
2018-12-15T09:50:57.669Z,395.98
2018-12-15T09:52:00.117Z,395.87
2018-12-15T09:52:57.704Z,395.76
2018-12-15T09:53:57.709Z,396.2
2018-12-15T09:54:57.676Z,396.18
2018-12-15T09:55:57.754Z,397.18
2018-12-15T09:56:57.702Z,397.91
2018-12-15T09:57:57.696Z,397.43
2018-12-15T09:58:57.701Z,397.46
2018-12-15T09:59:57.730Z,397.45
2018-12-15T10:00:57.717Z,397.63
2018-12-15T10:01:57.708Z,397.4
2018-12-15T10:02:57.758Z,397.32
2018-12-15T10:03:57.709Z,395.47
2018-12-15T10:04:57.714Z,395.72
2018-12-15T10:05:57.726Z,394.99
2018-12-15T10:06:57.689Z,396.36
2018-12-15T10:07:57.758Z,395.8
2018-12-15T10:08:57.697Z,396.34
2018-12-15T10:09:57.704Z,395.67
2018-12-15T10:10:57.697Z,395.28
2018-12-15T10:11:57.725Z,394.28
2018-12-15T10:12:57.702Z,394.78
2018-12-15T10:13:57.826Z,393.59
2018-12-15T10:14:57.708Z,393.41
2018-12-15T10:15:57.715Z,394.1
2018-12-15T10:16:57.755Z,394.74
2018-12-15T10:17:57.764Z,395.41
2018-12-15T10:18:57.765Z,395.26
2018-12-15T10:19:57.736Z,395.28
2018-12-15T10:20:57.748Z,395.97
2018-12-15T10:21:57.752Z,396.36
2018-12-15T10:22:57.761Z,395.87
2018-12-15T10:23:57.745Z,396.53
2018-12-15T10:24:57.744Z,396.55
2018-12-15T10:25:57.785Z,395.94
2018-12-15T10:26:57.792Z,395.24
2018-12-15T10:27:57.764Z,394.56
2018-12-15T10:28:57.770Z,393.31
2018-12-15T10:29:57.830Z,392
2018-12-15T10:30:57.743Z,391.39
2018-12-15T10:31:57.798Z,390.12
2018-12-15T10:32:57.756Z,389.05
2018-12-15T10:33:57.753Z,388.19
2018-12-15T10:34:57.749Z,387.15
2018-12-15T10:35:57.782Z,387.28
2018-12-15T10:36:57.787Z,387.16
2018-12-15T10:37:57.790Z,386.6
2018-12-15T10:38:57.774Z,385.69
2018-12-15T10:39:57.774Z,385.74
2018-12-15T10:40:57.754Z,385.9
2018-12-15T10:41:57.763Z,385.51
2018-12-15T10:42:57.865Z,386.11
2018-12-15T10:43:57.802Z,386.05
2018-12-15T10:44:57.746Z,387.08
2018-12-15T10:45:57.759Z,388.34
2018-12-15T10:46:57.790Z,388.79
2018-12-15T10:47:57.759Z,388.5
2018-12-15T10:48:57.761Z,389.6
2018-12-15T10:49:57.797Z,390.46
2018-12-15T10:50:57.770Z,391.59
2018-12-15T10:51:57.809Z,393.15
2018-12-15T10:52:57.827Z,392.84
2018-12-15T10:53:57.792Z,393.73
2018-12-15T10:54:57.771Z,393.56
2018-12-15T10:55:57.778Z,393.5
2018-12-15T10:56:57.814Z,394.23
2018-12-15T10:57:57.821Z,394.59
2018-12-15T10:58:57.795Z,394.87
2018-12-15T10:59:57.802Z,395.24
2018-12-15T11:00:57.809Z,395.2
2018-12-15T11:01:57.784Z,394.8
2018-12-15T11:02:57.799Z,395.88
2018-12-15T11:04:00.724Z,394.51
2018-12-15T11:04:57.767Z,394.94
2018-12-15T11:05:57.811Z,393.66
2018-12-15T11:06:57.805Z,392.76
2018-12-15T11:07:57.822Z,392.37
2018-12-15T11:08:57.836Z,392.16
2018-12-15T11:09:57.825Z,391.29
2018-12-15T11:10:57.843Z,391.11
2018-12-15T11:11:57.810Z,391.89
2018-12-15T11:12:57.856Z,393.64
2018-12-15T11:13:57.822Z,393.57
2018-12-15T11:14:57.815Z,394.38
2018-12-15T11:15:57.835Z,396.39
2018-12-15T11:16:57.846Z,397.19
2018-12-15T11:17:57.817Z,397.98
2018-12-15T11:18:57.858Z,398.66
2018-12-15T11:19:57.802Z,400.41
2018-12-15T11:20:57.826Z,401.64
2018-12-15T11:21:57.814Z,402.92
2018-12-15T11:22:57.843Z,405.3
2018-12-15T11:23:57.856Z,406.91
2018-12-15T11:24:57.836Z,409.45
2018-12-15T11:25:57.840Z,410.75
2018-12-15T11:26:57.855Z,412.45
2018-12-15T11:27:57.887Z,413.37
2018-12-15T11:28:57.806Z,414.67
2018-12-15T11:29:57.813Z,415.88
2018-12-15T11:30:57.838Z,416.76
2018-12-15T11:31:57.839Z,416.89
2018-12-15T11:32:57.887Z,416.91
2018-12-15T11:33:57.859Z,416.94
2018-12-15T11:34:57.863Z,417.06
2018-12-15T11:35:57.935Z,417.04
2018-12-15T11:36:57.874Z,416.88
2018-12-15T11:37:57.859Z,416.26
2018-12-15T11:38:57.885Z,415.32
2018-12-15T11:39:57.849Z,416.39
2018-12-15T11:40:57.948Z,416.59
2018-12-15T11:41:57.848Z,416.81
2018-12-15T11:42:57.836Z,418.38
2018-12-15T11:43:57.967Z,419.76
2018-12-15T11:44:57.837Z,418.53
2018-12-15T11:45:57.872Z,417.99
2018-12-15T11:46:57.921Z,419.09
2018-12-15T11:47:57.884Z,417.81
2018-12-15T11:48:57.952Z,417.42
2018-12-15T11:49:57.938Z,416.79
2018-12-15T11:50:57.908Z,415.17
2018-12-15T11:51:57.876Z,413.55
2018-12-15T11:52:57.861Z,413.45
2018-12-15T11:53:57.894Z,413.52
2018-12-15T11:54:57.891Z,412.54
2018-12-15T11:55:57.869Z,411.77
2018-12-15T11:56:57.878Z,411.04
2018-12-15T11:57:57.878Z,409.98
2018-12-15T11:58:57.867Z,409.86
2018-12-15T11:59:57.864Z,409.84
2018-12-15T12:00:57.898Z,409.58
2018-12-15T12:01:57.890Z,409.21
2018-12-15T12:02:58.035Z,409.12
2018-12-15T12:03:59.770Z,409.53
2018-12-15T12:04:57.869Z,408.44
2018-12-15T12:05:58.037Z,408.2
2018-12-15T12:06:57.882Z,407.83
2018-12-15T12:07:57.880Z,407.82
2018-12-15T12:08:57.884Z,408.39
2018-12-15T12:09:57.928Z,407.94
2018-12-15T12:10:57.937Z,407.55
2018-12-15T12:11:58.025Z,408.15
2018-12-15T12:12:57.924Z,408.79
2018-12-15T12:14:00.363Z,408.3
2018-12-15T12:14:57.964Z,408.5
2018-12-15T12:15:57.932Z,408.03
2018-12-15T12:16:57.932Z,407.88
2018-12-15T12:17:57.940Z,406.93
2018-12-15T12:18:57.923Z,406.27
2018-12-15T12:19:57.949Z,405.85
2018-12-15T12:20:57.929Z,404.42
2018-12-15T12:21:58.039Z,403.5
2018-12-15T12:22:57.910Z,403.39
2018-12-15T12:23:57.924Z,402.94
2018-12-15T12:24:57.923Z,402.3
2018-12-15T12:25:57.930Z,402.86
2018-12-15T12:26:57.913Z,402.7
2018-12-15T12:27:58.011Z,400.94
2018-12-15T12:29:04.846Z,400.79
2018-12-15T12:29:58.057Z,400.79
2018-12-15T12:30:57.964Z,400.57
2018-12-15T12:31:57.928Z,401.24
2018-12-15T12:32:59.395Z,401.62
2018-12-15T12:33:57.988Z,401.16
2018-12-15T12:34:57.923Z,401.54
2018-12-15T12:35:57.956Z,402.21
2018-12-15T12:36:57.964Z,401.97
2018-12-15T12:37:58.000Z,403.08
2018-12-15T12:38:57.993Z,402.78
2018-12-15T12:39:58.022Z,403.76
2018-12-15T12:40:57.990Z,404.15
2018-12-15T12:41:57.965Z,404.36
2018-12-15T12:42:57.975Z,404.6
2018-12-15T12:43:57.953Z,403.63
2018-12-15T12:44:58.084Z,404.47
2018-12-15T12:45:57.960Z,406.11
2018-12-15T12:46:57.970Z,405.56
2018-12-15T12:47:57.974Z,405.96
2018-12-15T12:48:58.051Z,406.26
2018-12-15T12:49:57.987Z,405.14
2018-12-15T12:50:58.015Z,405.25
2018-12-15T12:51:58.016Z,406.13
2018-12-15T12:52:57.974Z,405.25
2018-12-15T12:53:57.976Z,406.76
2018-12-15T12:54:57.947Z,409.04
2018-12-15T12:55:57.992Z,410.77
2018-12-15T12:56:58.070Z,410.3
2018-12-15T12:57:58.039Z,409.72
2018-12-15T12:58:57.978Z,409.71
2018-12-15T12:59:58.060Z,408.6
2018-12-15T13:00:58.025Z,407.86
2018-12-15T13:01:57.967Z,406.13
2018-12-15T13:03:06.402Z,404.39
2018-12-15T13:03:58.049Z,403.87
2018-12-15T13:04:57.995Z,403.15
2018-12-15T13:05:57.980Z,403.18
2018-12-15T13:06:58.030Z,402.72
2018-12-15T13:07:58.009Z,402.71
2018-12-15T13:08:57.999Z,401.86
2018-12-15T13:09:58.007Z,401.83
2018-12-15T13:10:58.023Z,401.61
2018-12-15T13:11:58.030Z,401.06
2018-12-15T13:12:58.036Z,400.8
2018-12-15T13:13:58.109Z,399.72